Map

Track Data

SID SEASON NUMBER BASIN SUBBASIN NAME ISO_TIME NATURE LAT LON WMO_WIND WMO_PRES WMO_AGENCY TRACK_TYPE DIST2LAND LANDFALL IFLAG USA_AGENCY USA_ATCF_ID USA_LAT USA_LON USA_RECORD USA_STATUS USA_WIND USA_PRES USA_SSHS USA_R34_NE USA_R34_SE USA_R34_SW USA_R34_NW USA_R50_NE USA_R50_SE USA_R50_SW USA_R50_NW USA_R64_NE USA_R64_SE USA_R64_SW USA_R64_NW USA_POCI USA_ROCI USA_RMW USA_EYE TOKYO_LAT TOKYO_LON TOKYO_GRADE TOKYO_WIND TOKYO_PRES TOKYO_R50_DIR TOKYO_R50_LONG TOKYO_R50_SHORT TOKYO_R30_DIR TOKYO_R30_LONG TOKYO_R30_SHORT TOKYO_LAND CMA_LAT CMA_LON CMA_CAT CMA_WIND CMA_PRES HKO_LAT HKO_LON HKO_CAT HKO_WIND HKO_PRES NEWDELHI_LAT NEWDELHI_LON NEWDELHI_GRADE NEWDELHI_WIND NEWDELHI_PRES NEWDELHI_CI NEWDELHI_DP NEWDELHI_POCI REUNION_LAT REUNION_LON REUNION_TYPE REUNION_WIND REUNION_PRES REUNION_TNUM REUNION_CI REUNION_RMW REUNION_R34_NE REUNION_R34_SE REUNION_R34_SW REUNION_R34_NW REUNION_R50_NE REUNION_R50_SE REUNION_R50_SW REUNION_R50_NW REUNION_R64_NE REUNION_R64_SE REUNION_R64_SW REUNION_R64_NW BOM_LAT BOM_LON BOM_TYPE BOM_WIND BOM_PRES BOM_TNUM BOM_CI BOM_RMW BOM_R34_NE BOM_R34_SE BOM_R34_SW BOM_R34_NW BOM_R50_NE BOM_R50_SE BOM_R50_SW BOM_R50_NW BOM_R64_NE BOM_R64_SE BOM_R64_SW BOM_R64_NW BOM_ROCI BOM_POCI BOM_EYE BOM_POS_METHOD BOM_PRES_METHOD NADI_LAT NADI_LON NADI_CAT NADI_WIND NADI_PRES WELLINGTON_LAT WELLINGTON_LON WELLINGTON_WIND WELLINGTON_PRES DS824_LAT DS824_LON DS824_STAGE DS824_WIND DS824_PRES TD9636_LAT TD9636_LON TD9636_STAGE TD9636_WIND TD9636_PRES TD9635_LAT TD9635_LON TD9635_WIND TD9635_PRES TD9635_ROCI NEUMANN_LAT NEUMANN_LON NEUMANN_CLASS NEUMANN_WIND NEUMANN_PRES MLC_LAT MLC_LON MLC_CLASS MLC_WIND MLC_PRES USA_GUST BOM_GUST BOM_GUST_PER REUNION_GUST REUNION_GUST_PER USA_SEAHGT USA_SEARAD_NE USA_SEARAD_SE USA_SEARAD_SW USA_SEARAD_NW STORM_SPEED STORM_DIR
1990215N38337 1990 59 NA NA EDOUARD 1990-08-02 18:00:00 SS 38.0000 -23.0000 30 1015 hurdat_atl main 1175 1173 O_____________ hurdat_atl AL061990 38.0000 -23.0000 SD 30 1015 -2 3 0
1990215N38337 1990 59 NA NA EDOUARD 1990-08-02 21:00:00 SS 38.1275 -22.9925 main 1173 1170 P_____________ AL061990 38.1275 -22.9925 SD 30 1014 -2 3 0
1990215N38337 1990 59 NA NA EDOUARD 1990-08-03 00:00:00 SS 38.3000 -23.0000 30 1013 hurdat_atl main 1170 1168 O_____________ hurdat_atl AL061990 38.3000 -23.0000 SD 30 1013 -2 4 355
1990215N38337 1990 59 NA NA EDOUARD 1990-08-03 03:00:00 SS 38.5425 -23.0350 main 1168 1167 P_____________ AL061990 38.5425 -23.0350 SD 30 1011 -2 5 351
1990215N38337 1990 59 NA NA EDOUARD 1990-08-03 06:00:00 SS 38.8000 -23.1000 30 1010 hurdat_atl main 1174 1172 O_____________ hurdat_atl AL061990 38.8000 -23.1000 SD 30 1010 -2 5 348
1990215N38337 1990 59 NA NA EDOUARD 1990-08-03 09:00:00 SS 39.0149 -23.1627 main 1181 1180 P_____________ AL061990 39.0149 -23.1627 SD 32 1009 -2 4 339
1990215N38337 1990 59 NA NA EDOUARD 1990-08-03 12:00:00 SS 39.2000 -23.3000 35 1009 hurdat_atl main 1188 1188 O_____________ hurdat_atl AL061990 39.2000 -23.3000 SS 35 1009 -2 4 323
1990215N38337 1990 59 NA NA EDOUARD 1990-08-03 15:00:00 SS 39.3644 -23.5102 main 1205 1205 P_____________ AL061990 39.3644 -23.5102 SS 37 1007 -2 6 303
1990215N38337 1990 59 NA NA EDOUARD 1990-08-03 18:00:00 SS 39.5000 -23.9000 40 1006 hurdat_atl main 1239 1239 O_____________ hurdat_atl AL061990 39.5000 -23.9000 SS 40 1006 -2 8 290
1990215N38337 1990 59 NA NA EDOUARD 1990-08-03 21:00:00 SS 39.6445 -24.4938 main 1290 1290 P_____________ AL061990 39.6445 -24.4938 SS 40 1005 -2 11 281
1990215N38337 1990 59 NA NA EDOUARD 1990-08-04 00:00:00 SS 39.7000 -25.3000 40 1005 hurdat_atl main 1358 1358 O_____________ hurdat_atl AL061990 39.7000 -25.3000 SS 40 1005 -2 14 269
1990215N38337 1990 59 NA NA EDOUARD 1990-08-04 03:00:00 SS 39.6107 -26.2779 main 1444 1444 P_____________ AL061990 39.6107 -26.2779 SS 37 1005 -2 16 259
1990215N38337 1990 59 NA NA EDOUARD 1990-08-04 06:00:00 SS 39.4000 -27.3000 35 1006 hurdat_atl main 1530 1530 O_____________ hurdat_atl AL061990 39.4000 -27.3000 SS 35 1006 -2 16 252
1990215N38337 1990 59 NA NA EDOUARD 1990-08-04 09:00:00 SS 39.1297 -28.2177 main 1596 1596 P_____________ AL061990 39.1297 -28.2177 SS 35 1006 -2 14 246
1990215N38337 1990 59 NA NA EDOUARD 1990-08-04 12:00:00 SS 38.8000 -29.0000 35 1006 hurdat_atl main 1622 1621 O_____________ hurdat_atl AL061990 38.8000 -29.0000 SS 35 1006 -2 13 238
1990215N38337 1990 59 NA NA EDOUARD 1990-08-04 15:00:00 SS 38.4419 -29.6247 main 1632 1632 P_____________ AL061990 38.4419 -29.6247 SS 32 1006 -2 11 231
1990215N38337 1990 59 NA NA EDOUARD 1990-08-04 18:00:00 SS 38.1000 -30.1000 30 1007 hurdat_atl main 1645 1645 O_____________ hurdat_atl AL061990 38.1000 -30.1000 SD 30 1007 -2 9 227
1990215N38337 1990 59 NA NA EDOUARD 1990-08-04 21:00:00 SS 37.8195 -30.4718 main 1653 1653 P_____________ AL061990 37.8195 -30.4718 SD 30 1007 -2 7 228
1990215N38337 1990 59 NA NA EDOUARD 1990-08-05 00:00:00 SS 37.6000 -30.8000 30 1007 hurdat_atl main 1662 1662 O_____________ hurdat_atl AL061990 37.6000 -30.8000 SD 30 1007 -2 7 235
1990215N38337 1990 59 NA NA EDOUARD 1990-08-05 03:00:00 SS 37.4274 -31.1848 main 1679 1679 P_____________ AL061990 37.4274 -31.1848 SD 30 1007 -2 7 245
1990215N38337 1990 59 NA NA EDOUARD 1990-08-05 06:00:00 SS 37.3000 -31.6000 30 1007 hurdat_atl main 1703 1703 O_____________ hurdat_atl AL061990 37.3000 -31.6000 SD 30 1007 -2 7 251
1990215N38337 1990 59 NA NA EDOUARD 1990-08-05 09:00:00 SS 37.1851 -32.0650 main 1735 1735 P_____________ AL061990 37.1851 -32.0650 SD 30 1007 -2 7 254
1990215N38337 1990 59 NA NA EDOUARD 1990-08-05 12:00:00 SS 37.1000 -32.5000 30 1007 hurdat_atl main 1760 1760 O_____________ hurdat_atl AL061990 37.1000 -32.5000 SD 30 1007 -2 6 256
1990215N38337 1990 59 NA NA EDOUARD 1990-08-05 15:00:00 SS 37.0349 -32.8449 main 1778 1778 P_____________ AL061990 37.0349 -32.8449 SD 27 1008 -2 5 258
1990215N38337 1990 59 NA NA EDOUARD 1990-08-05 18:00:00 SS 37.0000 -33.1000 25 1009 hurdat_atl main 1801 1801 O_____________ hurdat_atl AL061990 37.0000 -33.1000 SD 25 1009 -2 4 262
1990215N38337 1990 59 NA NA EDOUARD 1990-08-05 21:00:00 SS 36.9849 -33.2874 main 1817 1817 P_____________ AL061990 36.9849 -33.2874 SD 25 1009 -2 2 270
1990215N38337 1990 59 NA NA EDOUARD 1990-08-06 00:00:00 SS 37.0000 -33.4000 25 1010 hurdat_atl main 1825 1825 O_____________ hurdat_atl AL061990 37.0000 -33.4000 SD 25 1010 -2 2 291
1990215N38337 1990 59 NA NA EDOUARD 1990-08-06 03:00:00 SS 37.0425 -33.4725 main 1833 1833 P_____________ AL061990 37.0425 -33.4725 SD 25 1010 -2 1 323
1990215N38337 1990 59 NA NA EDOUARD 1990-08-06 06:00:00 SS 37.1000 -33.5000 25 1010 hurdat_atl main 1838 1838 O_____________ hurdat_atl AL061990 37.1000 -33.5000 SD 25 1010 -2 1 0
1990215N38337 1990 59 NA NA EDOUARD 1990-08-06 09:00:00 SS 37.1350 -33.5075 main 1838 1838 P_____________ AL061990 37.1350 -33.5075 SD 25 1010 -2 1 0
1990215N38337 1990 59 NA NA EDOUARD 1990-08-06 12:00:00 SS 37.2000 -33.5000 25 1010 hurdat_atl main 1843 1843 O_____________ hurdat_atl AL061990 37.2000 -33.5000 SD 25 1010 -2 2 6
1990215N38337 1990 59 NA NA EDOUARD 1990-08-06 15:00:00 SS 37.3575 -33.4850 main 1854 1854 P_____________ AL061990 37.3575 -33.4850 SD 25 1010 -2 3 0
1990215N38337 1990 59 NA NA EDOUARD 1990-08-06 18:00:00 TS 37.5000 -33.5000 25 1010 hurdat_atl main 1859 1859 O_____________ hurdat_atl AL061990 37.5000 -33.5000 TD 25 1010 -1 2 335
1990215N38337 1990 59 NA NA EDOUARD 1990-08-06 21:00:00 TS 37.5300 -33.5850 main 1867 1867 P_____________ AL061990 37.5300 -33.5850 TD 25 1010 -1 2 270
1990215N38337 1990 59 NA NA EDOUARD 1990-08-07 00:00:00 TS 37.5000 -33.7000 25 1010 hurdat_atl main 1874 1874 O_____________ hurdat_atl AL061990 37.5000 -33.7000 TD 25 1010 -1 2 251
1990215N38337 1990 59 NA NA EDOUARD 1990-08-07 03:00:00 TS 37.4725 -33.7924 main 1878 1877 P_____________ AL061990 37.4725 -33.7924 TD 25 1009 -1 2 237
1990215N38337 1990 59 NA NA EDOUARD 1990-08-07 06:00:00 TS 37.4000 -33.9000 25 1008 hurdat_atl main 1878 1872 O_____________ hurdat_atl AL061990 37.4000 -33.9000 TD 25 1008 -1 3 225
1990215N38337 1990 59 NA NA EDOUARD 1990-08-07 09:00:00 TS 37.2576 -34.0652 main 1872 1872 P_____________ AL061990 37.2576 -34.0652 TD 25 1008 -1 4 218
1990215N38337 1990 59 NA NA EDOUARD 1990-08-07 12:00:00 TS 37.1000 -34.2000 25 1008 hurdat_atl main 1880 1880 O_____________ hurdat_atl AL061990 37.1000 -34.2000 TD 25 1008 -1 3 206
1990215N38337 1990 59 NA NA EDOUARD 1990-08-07 15:00:00 TS 36.9775 -34.2374 main 1887 1884 P_____________ AL061990 36.9775 -34.2374 TD 25 1008 -1 2 172
1990215N38337 1990 59 NA NA EDOUARD 1990-08-07 18:00:00 TS 36.9000 -34.2000 25 1008 hurdat_atl main 1884 1876 O_____________ hurdat_atl AL061990 36.9000 -34.2000 TD 25 1008 -1 1 140
1990215N38337 1990 59 NA NA EDOUARD 1990-08-07 21:00:00 TS 36.8775 -34.1300 main 1876 1868 P_____________ AL061990 36.8775 -34.1300 TD 27 1007 -1 2 90
1990215N38337 1990 59 NA NA EDOUARD 1990-08-08 00:00:00 TS 36.9000 -34.0000 30 1007 hurdat_atl main 1868 1852 O_____________ hurdat_atl AL061990 36.9000 -34.0000 TD 30 1007 -1 2 75
1990215N38337 1990 59 NA NA EDOUARD 1990-08-08 03:00:00 TS 36.9424 -33.8300 main 1852 1841 P_____________ AL061990 36.9424 -33.8300 TD 30 1007 -1 3 73
1990215N38337 1990 59 NA NA EDOUARD 1990-08-08 06:00:00 TS 37.0000 -33.6000 30 1007 hurdat_atl main 1841 1825 O_____________ hurdat_atl AL061990 37.0000 -33.6000 TD 30 1007 -1 4 77
1990215N38337 1990 59 NA NA EDOUARD 1990-08-08 09:00:00 TS 37.0347 -33.3447 main 1817 1799 P_____________ AL061990 37.0347 -33.3447 TD 30 1007 -1 5 78
1990215N38337 1990 59 NA NA EDOUARD 1990-08-08 12:00:00 TS 37.1000 -33.0000 30 1007 hurdat_atl main 1799 1773 O_____________ hurdat_atl AL061990 37.1000 -33.0000 TD 30 1007 -1 7 73
1990215N38337 1990 59 NA NA EDOUARD 1990-08-08 15:00:00 TS 37.2274 -32.5449 main 1766 1739 P_____________ AL061990 37.2274 -32.5449 TD 32 1006 -1 8 69
1990215N38337 1990 59 NA NA EDOUARD 1990-08-08 18:00:00 TS 37.4000 -32.0000 35 1005 hurdat_atl main 1739 1706 O_____________ hurdat_atl AL061990 37.4000 -32.0000 TS 35 1005 0 10 69
1990215N38337 1990 59 NA NA EDOUARD 1990-08-08 21:00:00 TS 37.5699 -31.4144 main 1706 1675 P_____________ AL061990 37.5699 -31.4144 TS 35 1004 0 10 67
1990215N38337 1990 59 NA NA EDOUARD 1990-08-09 00:00:00 TS 37.8000 -30.8000 35 1004 hurdat_atl main 1675 1652 O_____________ hurdat_atl AL061990 37.8000 -30.8000 TS 35 1004 0 11 60
1990215N38337 1990 59 NA NA EDOUARD 1990-08-09 03:00:00 TS 38.1274 -30.1852 main 1652 1639 P_____________ AL061990 38.1274 -30.1852 TS 37 1003 0 12 53
1990215N38337 1990 59 NA NA EDOUARD 1990-08-09 06:00:00 TS 38.5000 -29.6000 40 1003 hurdat_atl main 1639 1629 O_____________ hurdat_atl AL061990 38.5000 -29.6000 TS 40 1003 0 12 50
1990215N38337 1990 59 NA NA EDOUARD 1990-08-09 09:00:00 TS 38.8725 -29.0477 main 1630 1625 P_____________ AL061990 38.8725 -29.0477 TS 37 1004 0 10 48
1990215N38337 1990 59 NA NA EDOUARD 1990-08-09 12:00:00 TS 39.2000 -28.6000 35 1005 hurdat_atl main 1628 1616 O_____________ hurdat_atl AL061990 39.2000 -28.6000 TS 35 1005 0 8 45
1990215N38337 1990 59 NA NA EDOUARD 1990-08-09 15:00:00 TS 39.4446 -28.3044 main 1616 1597 P_____________ AL061990 39.4446 -28.3044 TS 35 1005 0 6 44
1990215N38337 1990 59 NA NA EDOUARD 1990-08-09 18:00:00 TS 39.6000 -28.1000 35 1006 hurdat_atl main 1597 1580 O_____________ hurdat_atl AL061990 39.6000 -28.1000 TS 35 1006 0 4 52
1990215N38337 1990 59 NA NA EDOUARD 1990-08-09 21:00:00 TS 39.6873 -27.9074 main 1580 1563 P_____________ AL061990 39.6873 -27.9074 TS 35 1006 0 3 72
1990215N38337 1990 59 NA NA EDOUARD 1990-08-10 00:00:00 TS 39.7000 -27.7000 35 1006 hurdat_atl main 1563 1546 O_____________ hurdat_atl AL061990 39.7000 -27.7000 TS 35 1006 0 4 91
1990215N38337 1990 59 NA NA EDOUARD 1990-08-10 03:00:00 TS 39.6797 -27.4452 main 1537 1512 P_____________ AL061990 39.6797 -27.4452 TS 35 1006 0 5 102
1990215N38337 1990 59 NA NA EDOUARD 1990-08-10 06:00:00 TS 39.6000 -27.1000 35 1007 hurdat_atl main 1512 1478 O_____________ hurdat_atl AL061990 39.6000 -27.1000 TS 35 1007 0 7 110
1990215N38337 1990 59 NA NA EDOUARD 1990-08-10 09:00:00 TS 39.4575 -26.6372 main 1470 1428 P_____________ AL061990 39.4575 -26.6372 TS 32 1008 -1 8 111
1990215N38337 1990 59 NA NA EDOUARD 1990-08-10 12:00:00 TS 39.3000 -26.1000 30 1009 hurdat_atl main 1428 1386 O_____________ hurdat_atl AL061990 39.3000 -26.1000 TD 30 1009 -1 9 108
1990215N38337 1990 59 NA NA EDOUARD 1990-08-10 15:00:00 TS 39.1847 -25.5651 main 1386 1335 P_____________ AL061990 39.1847 -25.5651 TD 30 1009 -1 9 103
1990215N38337 1990 59 NA NA EDOUARD 1990-08-10 18:00:00 TS 39.1000 -25.0000 30 1010 hurdat_atl main 1335 1284 O_____________ hurdat_atl AL061990 39.1000 -25.0000 TD 30 1010 -1 9 99
1990215N38337 1990 59 NA NA EDOUARD 1990-08-10 21:00:00 TS 39.0351 -24.3851 main 1284 1232 P_____________ AL061990 39.0351 -24.3851 TD 30 1010 -1 9 96
1990215N38337 1990 59 NA NA EDOUARD 1990-08-11 00:00:00 TS 39.0000 -23.8000 30 1010 hurdat_atl main 1232 1198 O_____________ hurdat_atl AL061990 39.0000 -23.8000 TD 30 1010 -1 8 94
1990215N38337 1990 59 NA NA EDOUARD 1990-08-11 03:00:00 TS 38.9845 -23.3275 main 1189 1155 P_____________ AL061990 38.9845 -23.3275 TD 30 1010 -1 7 90
1990215N38337 1990 59 NA NA EDOUARD 1990-08-11 06:00:00 TS 39.0000 -22.9000 30 1010 hurdat_atl main 1155 1120 O_____________ hurdat_atl AL061990 39.0000 -22.9000 TD 30 1010 -1 7 84
1990215N38337 1990 59 NA NA EDOUARD 1990-08-11 09:00:00 TS 39.0574 -22.4429 main 1111 1077 P_____________ AL061990 39.0574 -22.4429 TD 30 1010 -1 7 82
1990215N38337 1990 59 NA NA EDOUARD 1990-08-11 12:00:00 ET 39.1000 -22.0000 30 1010 hurdat_atl main 1077 1043 O_____________ hurdat_atl AL061990 39.1000 -22.0000 EX 30 1010 -4 7 89
1990215N38337 1990 59 NA NA EDOUARD 1990-08-11 15:00:00 ET 39.0649 -21.5848 main 1043 1009 P_____________ AL061990 39.0649 -21.5848 EX 30 1010 -4 6 99
1990215N38337 1990 59 NA NA EDOUARD 1990-08-11 18:00:00 ET 39.0000 -21.2000 30 1010 hurdat_atl main 1009 983 O_____________ hurdat_atl AL061990 39.0000 -21.2000 EX 30 1010 -4 6 101
1990215N38337 1990 59 NA NA EDOUARD 1990-08-11 21:00:00 ET 38.9499 -20.8351 main 975 949 P_____________ AL061990 38.9499 -20.8351 EX 30 1010 -4 6 100
1990215N38337 1990 59 NA NA EDOUARD 1990-08-12 00:00:00 ET 38.9000 -20.5000 30 1010 hurdat_atl main 949 923 O_____________ hurdat_atl AL061990 38.9000 -20.5000 EX 30 1010 -4 5 100
1990215N38337 1990 59 NA NA EDOUARD 1990-08-12 03:00:00 ET 38.8649 -20.1927 main 923 898 P_____________ AL061990 38.8649 -20.1927 EX 30 1010 -4 5 102
1990215N38337 1990 59 NA NA EDOUARD 1990-08-12 06:00:00 ET 38.8000 -19.9000 30 1010 hurdat_atl main 898 872 O_____________ hurdat_atl AL061990 38.8000 -19.9000 EX 30 1010 -4 5 113
1990215N38337 1990 59 NA NA EDOUARD 1990-08-12 09:00:00 ET 38.6723 -19.6151 main 872 848 P_____________ AL061990 38.6723 -19.6151 EX 30 1010 -4 6 123
1990215N38337 1990 59 NA NA EDOUARD 1990-08-12 12:00:00 ET 38.5000 -19.3000 30 1010 hurdat_atl main 848 816 O_____________ hurdat_atl AL061990 38.5000 -19.3000 EX 30 1010 -4 7 123
1990215N38337 1990 59 NA NA EDOUARD 1990-08-12 15:00:00 ET 38.3076 -18.9074 main 816 785 P_____________ AL061990 38.3076 -18.9074 EX 27 1010 -4 7 123
1990215N38337 1990 59 NA NA EDOUARD 1990-08-12 18:00:00 ET 38.1000 -18.5000 25 1011 hurdat_atl main 785 762 O_____________ hurdat_atl AL061990 38.1000 -18.5000 EX 25 1011 -4 7 126
1990215N38337 1990 59 NA NA EDOUARD 1990-08-12 21:00:00 ET 37.8773 -18.1424 main 754 732 P_____________ AL061990 37.8773 -18.1424 EX 22 1011 -4 7 126
1990215N38337 1990 59 NA NA EDOUARD 1990-08-13 00:00:00 ET 37.7000 -17.8000 20 1012 hurdat_atl main 732 709 O_____________ hurdat_atl AL061990 37.7000 -17.8000 EX 20 1012 -4 6 117
1990215N38337 1990 59 NA NA EDOUARD 1990-08-13 03:00:00 ET 37.5900 -17.4349 main 701 675 P_____________ AL061990 37.5900 -17.4349 EX 20 1012 -4 6 100
1990215N38337 1990 59 NA NA EDOUARD 1990-08-13 06:00:00 ET 37.6000 -17.1000 20 1012 hurdat_atl main 675 647 O_____________ hurdat_atl AL061990 37.6000 -17.1000 EX 20 1012 -4 5 71
1990215N38337 1990 59 NA NA EDOUARD 1990-08-13 09:00:00 ET 37.7575 -16.8304 main 644 623 P_____________ AL061990 37.7575 -16.8304 EX 20 1013 -4 6 45
1990215N38337 1990 59 NA NA EDOUARD 1990-08-13 12:00:00 ET 38.0000 -16.6000 20 1014 hurdat_atl main 623 O_____________ hurdat_atl AL061990 38.0000 -16.6000 EX 20 1014 -4 6 37

About IBTrACS Database

This database is a web-friendly format of International Best Track Archive for Climate Stewardship (IBTrACS), a global best track data archive curated by NOAA dating back to 1842.

Updated: 2021-10-08